10分钟前
罗盘
风向 的 风向 160° Rodez-Marcillac Airport 13/31
风: 2 千吨, 1 beaufort
乌云 & 能见度
METAR LFCR 260700Z AUTO 16002KT 0900 0650 R31/1200D FG ////// 13/13 Q1021

METAR定义 | 嵌入

24小时趋势

航班类别VFRLIFR
温度24 °C12 °C
风速17 千吨0 千吨
风向330°000°
能见度10 公里+0 米
昆士兰州10211016

更多历史数据

下载我们的安卓应用程序

从你的主屏幕上轻松地访问你的航空天气。
只需一次付费,您就可以获得无广告的体验。

您会帮助我们保持Metar-Taf.com正常运行吗?
您的贡献有助于网站的进一步开发并支付费用。

没有更多广告

您是捐款5美元还是更多?然后,我们将永远不会再向您展示广告,这是我们永恒的感谢!
捐赠前先登录

METAR Rodez-Marcillac Airport

Rodez-Marcillac Airport是Rodez/Marcillac,法国中的中型机场。 机场有{a,plural,=1{一条跑道} other{#跑道}}: 13/31 (2.040 米)

该报告是针对2021年9月26日 09:00, 当地时间上的Rodez-Marcillac Airport所做的。

机场观察

风来自南南东 (160°)方向,速度为2 千吨。

可见度为650 米。 跑道31的能见度为1.200 米 和 减少。

有。 没有观察到天花板。

当前天气为多雾路段。 温度和风寒是13 °C。 露点为13 °C,相对湿度为100%。 海平面上的气压为1021 压力 (QNH)。

白天

今天,太阳从07:42升起,在19:40降落。 这适用于Rodez-Marcillac Airport,世界夏令时可能有所不同。 当地时间与世界标准时间之间的时差为+2 小时。 夏令时目前正在进行中。

您是否要在网站上Rodez-Marcillac Airport飞行的天气? 阅读更多   自由!